Dallas, Texas
Traffic Map
Current Weather Conditions
Dallas, Texas
Overcast
Overcast
20°
Feels Like: 20°
Wind Chill: 20° Ceiling: 9000
Heat Index: 20° Visibility: 10mi
Dew Point: 18° Wind: 8mph
Humidity: 90% Direction: 170° (S)
Pressure: 29.89in Gusts: 0mph
Raw Report DataKDAL 241053Z 17007KT 10SM FEW009 SCT042 BKN090 OVC130 20/18 A2989 RMK AO2 RAE43 SLP117 P0002 T02000183 $
Traffic Incident Summary
Active as of:
Severity:
Category:
InformationThere was an issue retrieving the traffic information for this location. Please try a different location or try again shortly.
Advertisements
Track Severe Weather on mobile